sensor_id;sensor_type;location;lat;lon;timestamp;pressure;altitude;pressure_sealevel;temperature;humidity
78485;BME280;67773;50.806;8.776;2023-04-03T00:00:46;100756.66;;;4.24;65.37
78485;BME280;67773;50.806;8.776;2023-04-03T00:03:11;100765.41;;;4.23;62.73
78485;BME280;67773;50.806;8.776;2023-04-03T00:05:36;100761.97;;;4.19;63.50
78485;BME280;67773;50.806;8.776;2023-04-03T00:08:02;100771.56;;;4.20;65.67
78485;BME280;67773;50.806;8.776;2023-04-03T00:10:28;100767.22;;;4.19;66.49
78485;BME280;67773;50.806;8.776;2023-04-03T00:12:54;100768.94;;;4.22;67.44
78485;BME280;67773;50.806;8.776;2023-04-03T00:15:19;100775.13;;;4.13;65.47
78485;BME280;67773;50.806;8.776;2023-04-03T00:17:45;100769.84;;;4.16;66.10
78485;BME280;67773;50.806;8.776;2023-04-03T00:20:10;100769.84;;;4.19;66.42
78485;BME280;67773;50.806;8.776;2023-04-03T00:22:36;100773.28;;;4.24;65.45
78485;BME280;67773;50.806;8.776;2023-04-03T00:25:01;100766.38;;;4.11;65.72
78485;BME280;67773;50.806;8.776;2023-04-03T00:27:27;100771.69;;;4.08;63.77
78485;BME280;67773;50.806;8.776;2023-04-03T00:29:52;100774.31;;;4.08;66.09
78485;BME280;67773;50.806;8.776;2023-04-03T00:32:17;100771.75;;;3.97;65.70
78485;BME280;67773;50.806;8.776;2023-04-03T00:34:43;100764.72;;;3.95;65.75
78485;BME280;67773;50.806;8.776;2023-04-03T00:37:08;100763.00;;;3.94;66.45
78485;BME280;67773;50.806;8.776;2023-04-03T00:39:34;100772.66;;;3.90;65.90
78485;BME280;67773;50.806;8.776;2023-04-03T00:41:59;100771.00;;;3.77;65.02
78485;BME280;67773;50.806;8.776;2023-04-03T00:46:53;100775.41;;;3.70;67.17
78485;BME280;67773;50.806;8.776;2023-04-03T00:49:18;100777.97;;;3.75;67.34
78485;BME280;67773;50.806;8.776;2023-04-03T00:51:44;100771.84;;;3.74;65.85
78485;BME280;67773;50.806;8.776;2023-04-03T00:54:10;100768.38;;;3.75;66.10
78485;BME280;67773;50.806;8.776;2023-04-03T00:56:36;100770.16;;;3.64;66.01
78485;BME280;67773;50.806;8.776;2023-04-03T00:59:13;100769.34;;;3.53;66.43
78485;BME280;67773;50.806;8.776;2023-04-03T01:01:40;100775.53;;;3.46;66.22
78485;BME280;67773;50.806;8.776;2023-04-03T01:04:06;100778.19;;;3.35;66.82
78485;BME280;67773;50.806;8.776;2023-04-03T01:06:36;100776.44;;;3.37;66.52
78485;BME280;67773;50.806;8.776;2023-04-03T01:09:03;100784.28;;;3.46;68.50
78485;BME280;67773;50.806;8.776;2023-04-03T01:11:29;100784.28;;;3.45;68.68
78485;BME280;67773;50.806;8.776;2023-04-03T01:13:54;100779.91;;;3.41;68.74
78485;BME280;67773;50.806;8.776;2023-04-03T01:16:20;100786.94;;;3.37;68.63
78485;BME280;67773;50.806;8.776;2023-04-03T01:18:45;100785.22;;;3.23;68.46
78485;BME280;67773;50.806;8.776;2023-04-03T01:26:57;100778.25;;;3.18;66.93
78485;BME280;67773;50.806;8.776;2023-04-03T01:29:22;100777.41;;;3.13;67.81
78485;BME280;67773;50.806;8.776;2023-04-03T01:31:53;100780.03;;;3.06;66.94
78485;BME280;67773;50.806;8.776;2023-04-03T01:34:19;100786.16;;;2.97;67.53
78485;BME280;67773;50.806;8.776;2023-04-03T01:36:45;100782.66;;;2.98;67.91
78485;BME280;67773;50.806;8.776;2023-04-03T01:39:11;100786.16;;;3.00;66.92
78485;BME280;67773;50.806;8.776;2023-04-03T01:41:36;100782.72;;;2.83;67.44
78485;BME280;67773;50.806;8.776;2023-04-03T01:44:02;100796.69;;;2.83;67.53
78485;BME280;67773;50.806;8.776;2023-04-03T01:46:27;100799.31;;;2.79;66.17
78485;BME280;67773;50.806;8.776;2023-04-03T01:48:52;100795.81;;;2.69;66.51
78485;BME280;67773;50.806;8.776;2023-04-03T01:51:18;100804.59;;;2.62;67.65
78485;BME280;67773;50.806;8.776;2023-04-03T01:53:43;100801.97;;;2.64;69.59
78485;BME280;67773;50.806;8.776;2023-04-03T01:56:08;100808.94;;;2.63;68.40
78485;BME280;67773;50.806;8.776;2023-04-03T01:58:34;100813.31;;;2.61;68.56
78485;BME280;67773;50.806;8.776;2023-04-03T02:00:59;100817.69;;;2.60;68.79
78485;BME280;67773;50.806;8.776;2023-04-03T02:03:24;100813.31;;;2.52;67.13
78485;BME280;67773;50.806;8.776;2023-04-03T02:05:50;100813.31;;;2.46;67.38
78485;BME280;67773;50.806;8.776;2023-04-03T02:08:16;100820.28;;;2.48;68.18
78485;BME280;67773;50.806;8.776;2023-04-03T02:10:44;100815.91;;;2.40;66.89
78485;BME280;67773;50.806;8.776;2023-04-03T02:13:10;100824.69;;;2.40;68.00
78485;BME280;67773;50.806;8.776;2023-04-03T02:15:38;100822.06;;;2.54;66.87
78485;BME280;67773;50.806;8.776;2023-04-03T02:18:03;100818.53;;;2.34;68.26
78485;BME280;67773;50.806;8.776;2023-04-03T02:20:28;100816.81;;;2.34;68.97
78485;BME280;67773;50.806;8.776;2023-04-03T02:22:54;100826.41;;;2.21;67.77
78485;BME280;67773;50.806;8.776;2023-04-03T02:25:19;100820.25;;;2.16;67.98
78485;BME280;67773;50.806;8.776;2023-04-03T02:27:45;100826.38;;;2.09;68.25
78485;BME280;67773;50.806;8.776;2023-04-03T02:30:11;100829.84;;;2.07;69.23
78485;BME280;67773;50.806;8.776;2023-04-03T02:32:36;100832.47;;;2.00;67.06
78485;BME280;67773;50.806;8.776;2023-04-03T02:35:01;100829.81;;;1.96;67.80
78485;BME280;67773;50.806;8.776;2023-04-03T02:37:27;100826.34;;;1.92;68.18
78485;BME280;67773;50.806;8.776;2023-04-03T02:39:52;100829.81;;;1.96;68.72
78485;BME280;67773;50.806;8.776;2023-04-03T02:42:18;100828.03;;;1.87;68.09
78485;BME280;67773;50.806;8.776;2023-04-03T02:44:43;100828.91;;;1.83;67.51
78485;BME280;67773;50.806;8.776;2023-04-03T02:47:09;100835.03;;;1.85;69.09
78485;BME280;67773;50.806;8.776;2023-04-03T02:49:34;100840.25;;;1.82;68.50
78485;BME280;67773;50.806;8.776;2023-04-03T02:52:00;100829.78;;;1.85;68.81
78485;BME280;67773;50.806;8.776;2023-04-03T02:54:25;100841.13;;;1.81;67.15
78485;BME280;67773;50.806;8.776;2023-04-03T02:56:53;100837.59;;;1.71;68.64
78485;BME280;67773;50.806;8.776;2023-04-03T02:59:19;100834.13;;;1.68;66.82
78485;BME280;67773;50.806;8.776;2023-04-03T03:01:45;100827.09;;;1.61;68.74
78485;BME280;67773;50.806;8.776;2023-04-03T03:04:10;100839.34;;;1.74;66.32
78485;BME280;67773;50.806;8.776;2023-04-03T03:06:35;100841.06;;;1.66;65.79
78485;BME280;67773;50.806;8.776;2023-04-03T03:09:01;100841.94;;;1.62;67.37
78485;BME280;67773;50.806;8.776;2023-04-03T03:11:26;100845.47;;;1.67;67.42
78485;BME280;67773;50.806;8.776;2023-04-03T03:13:52;100844.56;;;1.65;68.62
78485;BME280;67773;50.806;8.776;2023-04-03T03:16:17;100840.19;;;1.58;67.92
78485;BME280;67773;50.806;8.776;2023-04-03T03:18:42;100837.53;;;1.47;67.56
78485;BME280;67773;50.806;8.776;2023-04-03T03:21:09;100840.13;;;1.50;67.09
78485;BME280;67773;50.806;8.776;2023-04-03T03:23:35;100840.09;;;1.39;68.23
78485;BME280;67773;50.806;8.776;2023-04-03T03:26:09;100847.06;;;1.43;67.83
78485;BME280;67773;50.806;8.776;2023-04-03T03:28:36;100840.09;;;1.36;69.06
78485;BME280;67773;50.806;8.776;2023-04-03T03:31:02;100842.69;;;1.36;70.05
78485;BME280;67773;50.806;8.776;2023-04-03T03:33:27;100841.84;;;1.39;68.61
78485;BME280;67773;50.806;8.776;2023-04-03T03:35:53;100837.47;;;1.36;69.15
78485;BME280;67773;50.806;8.776;2023-04-03T03:38:19;100838.28;;;1.32;69.24
78485;BME280;67773;50.806;8.776;2023-04-03T03:40:47;100842.66;;;1.26;69.57
78485;BME280;67773;50.806;8.776;2023-04-03T03:43:13;100844.28;;;1.13;68.96
78485;BME280;67773;50.806;8.776;2023-04-03T03:45:38;100835.50;;;1.02;69.68
78485;BME280;67773;50.806;8.776;2023-04-03T03:48:04;100833.75;;;0.96;70.44
78485;BME280;67773;50.806;8.776;2023-04-03T03:50:29;100840.72;;;1.02;70.45
78485;BME280;67773;50.806;8.776;2023-04-03T03:52:55;100827.59;;;0.91;70.21
78485;BME280;67773;50.806;8.776;2023-04-03T03:55:20;100844.19;;;0.98;69.61
78485;BME280;67773;50.806;8.776;2023-04-03T03:57:45;100839.91;;;1.04;69.31
78485;BME280;67773;50.806;8.776;2023-04-03T04:00:11;100836.38;;;1.01;70.34
78485;BME280;67773;50.806;8.776;2023-04-03T04:02:36;100840.69;;;0.94;69.69
78485;BME280;67773;50.806;8.776;2023-04-03T04:05:02;100834.63;;;0.97;69.40
78485;BME280;67773;50.806;8.776;2023-04-03T04:07:27;100841.59;;;0.98;71.41
78485;BME280;67773;50.806;8.776;2023-04-03T04:09:53;100839.78;;;0.91;71.48
78485;BME280;67773;50.806;8.776;2023-04-03T04:12:18;100838.03;;;0.86;71.73
78485;BME280;67773;50.806;8.776;2023-04-03T04:14:44;100839.78;;;0.89;71.43
78485;BME280;67773;50.806;8.776;2023-04-03T04:17:12;100841.50;;;0.84;71.37
78485;BME280;67773;50.806;8.776;2023-04-03T04:19:37;100851.91;;;0.79;71.83
78485;BME280;67773;50.806;8.776;2023-04-03T04:22:03;100854.53;;;0.81;72.08
78485;BME280;67773;50.806;8.776;2023-04-03T04:24:28;100850.22;;;0.84;72.18
78485;BME280;67773;50.806;8.776;2023-04-03T04:26:53;100854.50;;;0.75;72.63
78485;BME280;67773;50.806;8.776;2023-04-03T04:29:18;100847.47;;;0.68;72.00
78485;BME280;67773;50.806;8.776;2023-04-03T04:31:44;100858.81;;;0.71;72.57
78485;BME280;67773;50.806;8.776;2023-04-03T04:34:09;100869.34;;;0.80;72.16
78485;BME280;67773;50.806;8.776;2023-04-03T04:36:34;100861.41;;;0.73;71.52
78485;BME280;67773;50.806;8.776;2023-04-03T04:39:00;100866.66;;;0.73;72.05
78485;BME280;67773;50.806;8.776;2023-04-03T04:41:25;100867.47;;;0.66;71.91
78485;BME280;67773;50.806;8.776;2023-04-03T04:43:51;100872.69;;;0.63;73.04
78485;BME280;67773;50.806;8.776;2023-04-03T04:46:17;100873.56;;;0.63;73.02
78485;BME280;67773;50.806;8.776;2023-04-03T04:48:42;100877.75;;;0.46;72.87
78485;BME280;67773;50.806;8.776;2023-04-03T04:51:08;100872.63;;;0.58;72.53
78485;BME280;67773;50.806;8.776;2023-04-03T04:53:34;100869.06;;;0.47;72.77
78485;BME280;67773;50.806;8.776;2023-04-03T04:55:59;100875.13;;;0.46;73.65
78485;BME280;67773;50.806;8.776;2023-04-03T04:58:25;100879.50;;;0.45;73.25
78485;BME280;67773;50.806;8.776;2023-04-03T05:00:58;100882.97;;;0.46;74.15
78485;BME280;67773;50.806;8.776;2023-04-03T05:03:24;100879.50;;;0.45;73.39
78485;BME280;67773;50.806;8.776;2023-04-03T05:05:49;100872.53;;;0.46;72.84
78485;BME280;67773;50.806;8.776;2023-04-03T05:08:14;100880.38;;;0.46;73.48
78485;BME280;67773;50.806;8.776;2023-04-03T05:10:40;100883.84;;;0.45;74.33
78485;BME280;67773;50.806;8.776;2023-04-03T05:13:06;100881.25;;;0.46;74.27
78485;BME280;67773;50.806;8.776;2023-04-03T05:15:31;100885.59;;;0.44;73.64
78485;BME280;67773;50.806;8.776;2023-04-03T05:17:57;100889.94;;;0.47;73.87
78485;BME280;67773;50.806;8.776;2023-04-03T05:20:22;100884.72;;;0.47;73.46
78485;BME280;67773;50.806;8.776;2023-04-03T05:22:47;100889.97;;;0.48;74.39
78485;BME280;67773;50.806;8.776;2023-04-03T05:25:13;100889.84;;;0.38;74.26
78485;BME280;67773;50.806;8.776;2023-04-03T05:27:39;100896.91;;;0.46;74.27
78485;BME280;67773;50.806;8.776;2023-04-03T05:30:04;100904.75;;;0.45;74.00
78485;BME280;67773;50.806;8.776;2023-04-03T05:32:30;100898.56;;;0.40;75.11
78485;BME280;67773;50.806;8.776;2023-04-03T05:34:55;100903.78;;;0.38;73.98
78485;BME280;67773;50.806;8.776;2023-04-03T05:37:21;100905.63;;;0.45;74.72
78485;BME280;67773;50.806;8.776;2023-04-03T05:39:46;100911.66;;;0.41;74.21
78485;BME280;67773;50.806;8.776;2023-04-03T05:42:12;100916.00;;;0.41;74.66
78485;BME280;67773;50.806;8.776;2023-04-03T05:44:38;100915.84;;;0.25;73.39
78485;BME280;67773;50.806;8.776;2023-04-03T05:47:04;100918.38;;;0.19;74.00
78485;BME280;67773;50.806;8.776;2023-04-03T05:49:30;100924.66;;;0.37;74.59
78485;BME280;67773;50.806;8.776;2023-04-03T05:51:55;100929.97;;;0.44;74.23
78485;BME280;67773;50.806;8.776;2023-04-03T05:54:24;100924.75;;;0.43;74.45
78485;BME280;67773;50.806;8.776;2023-04-03T05:56:51;100947.50;;;0.53;74.41
78485;BME280;67773;50.806;8.776;2023-04-03T05:59:17;100946.72;;;0.63;73.20
78485;BME280;67773;50.806;8.776;2023-04-03T06:01:43;100942.38;;;0.65;73.43
78485;BME280;67773;50.806;8.776;2023-04-03T06:04:08;100947.72;;;0.77;72.89
78485;BME280;67773;50.806;8.776;2023-04-03T06:06:54;100952.19;;;0.89;72.57
78485;BME280;67773;50.806;8.776;2023-04-03T06:09:24;100950.53;;;1.00;71.90
78485;BME280;67773;50.806;8.776;2023-04-03T06:11:49;100958.34;;;0.96;72.25
78485;BME280;67773;50.806;8.776;2023-04-03T06:14:15;100956.59;;;0.98;72.23
78485;BME280;67773;50.806;8.776;2023-04-03T06:16:40;100960.19;;;1.09;71.27
78485;BME280;67773;50.806;8.776;2023-04-03T06:19:07;100964.63;;;1.16;70.50
78485;BME280;67773;50.806;8.776;2023-04-03T06:21:33;100969.00;;;1.23;71.33
78485;BME280;67773;50.806;8.776;2023-04-03T06:23:58;100962.16;;;1.37;71.27
78485;BME280;67773;50.806;8.776;2023-04-03T06:26:24;100972.66;;;1.43;70.15
78485;BME280;67773;50.806;8.776;2023-04-03T06:28:49;100971.81;;;1.48;70.14
78485;BME280;67773;50.806;8.776;2023-04-03T06:31:15;100964.91;;;1.62;68.79
78485;BME280;67773;50.806;8.776;2023-04-03T06:33:41;100975.44;;;1.71;68.45
78485;BME280;67773;50.806;8.776;2023-04-03T06:36:07;100971.09;;;1.73;68.22
78485;BME280;67773;50.806;8.776;2023-04-03T06:38:33;100972.88;;;1.80;67.95
78485;BME280;67773;50.806;8.776;2023-04-03T06:40:59;100979.94;;;1.90;67.74
78485;BME280;67773;50.806;8.776;2023-04-03T06:43:25;100991.22;;;1.83;68.00
78485;BME280;67773;50.806;8.776;2023-04-03T06:45:51;100994.72;;;1.82;66.33
78485;BME280;67773;50.806;8.776;2023-04-03T06:48:16;101011.22;;;1.72;66.81
78485;BME280;67773;50.806;8.776;2023-04-03T06:50:42;101005.91;;;1.58;67.71
78485;BME280;67773;50.806;8.776;2023-04-03T06:53:08;101012.97;;;1.68;68.32
78485;BME280;67773;50.806;8.776;2023-04-03T06:55:34;101017.34;;;1.74;66.81
78485;BME280;67773;50.806;8.776;2023-04-03T06:57:59;101017.41;;;1.85;68.07
78485;BME280;67773;50.806;8.776;2023-04-03T07:00:24;101010.47;;;1.90;67.61
78485;BME280;67773;50.806;8.776;2023-04-03T07:02:50;101023.63;;;2.00;66.67
78485;BME280;67773;50.806;8.776;2023-04-03T07:05:16;101030.63;;;2.08;66.07
78485;BME280;67773;50.806;8.776;2023-04-03T07:07:42;101043.69;;;1.98;65.47
78485;BME280;67773;50.806;8.776;2023-04-03T07:10:08;101027.19;;;2.15;66.19
78485;BME280;67773;50.806;8.776;2023-04-03T07:12:33;101035.91;;;2.14;65.64
78485;BME280;67773;50.806;8.776;2023-04-03T07:14:59;101035.84;;;2.08;66.48
78485;BME280;67773;50.806;8.776;2023-04-03T07:17:24;101038.50;;;2.11;67.29
78485;BME280;67773;50.806;8.776;2023-04-03T07:19:50;101041.16;;;2.15;66.22
78485;BME280;67773;50.806;8.776;2023-04-03T07:22:16;101043.84;;;2.32;65.68
78485;BME280;67773;50.806;8.776;2023-04-03T07:24:41;101051.72;;;2.35;65.60
78485;BME280;67773;50.806;8.776;2023-04-03T07:27:07;101044.69;;;2.23;64.78
78485;BME280;67773;50.806;8.776;2023-04-03T07:29:34;101047.31;;;2.22;63.83
78485;BME280;67773;50.806;8.776;2023-04-03T07:31:59;101044.69;;;2.23;65.94
78485;BME280;67773;50.806;8.776;2023-04-03T07:34:25;101052.59;;;2.36;65.73
78485;BME280;67773;50.806;8.776;2023-04-03T07:36:50;101055.22;;;2.31;64.98
78485;BME280;67773;50.806;8.776;2023-04-03T07:39:15;101065.78;;;2.54;63.97
78485;BME280;67773;50.806;8.776;2023-04-03T07:41:41;101064.94;;;2.61;63.27
78485;BME280;67773;50.806;8.776;2023-04-03T07:44:06;101063.16;;;2.60;62.02
78485;BME280;67773;50.806;8.776;2023-04-03T07:46:34;101061.56;;;2.96;62.76
78485;BME280;67773;50.806;8.776;2023-04-03T07:49:00;101058.06;;;3.10;61.91
78485;BME280;67773;50.806;8.776;2023-04-03T07:51:25;101063.34;;;3.13;61.35
78485;BME280;67773;50.806;8.776;2023-04-03T07:53:51;101061.63;;;3.34;61.04
78485;BME280;67773;50.806;8.776;2023-04-03T07:56:17;101060.75;;;3.76;60.72
78485;BME280;67773;50.806;8.776;2023-04-03T07:58:42;101060.66;;;4.14;59.09
78485;BME280;67773;50.806;8.776;2023-04-03T08:01:08;101059.75;;;4.17;57.02
78485;BME280;67773;50.806;8.776;2023-04-03T08:03:33;101058.88;;;4.16;58.41
78485;BME280;67773;50.806;8.776;2023-04-03T08:06:06;101061.50;;;4.16;57.64
78485;BME280;67773;50.806;8.776;2023-04-03T08:08:33;101065.09;;;3.79;58.08
78485;BME280;67773;50.806;8.776;2023-04-03T08:11:00;101061.53;;;4.04;58.34
78485;BME280;67773;50.806;8.776;2023-04-03T08:13:26;101063.28;;;4.05;58.91
78485;BME280;67773;50.806;8.776;2023-04-03T08:15:51;101059.88;;;3.75;58.28
78485;BME280;67773;50.806;8.776;2023-04-03T08:18:17;101052.84;;;3.64;59.37
78485;BME280;67773;50.806;8.776;2023-04-03T08:20:46;101038.84;;;3.51;59.96
78485;BME280;67773;50.806;8.776;2023-04-03T08:23:12;101051.97;;;3.75;58.15
78485;BME280;67773;50.806;8.776;2023-04-03T08:25:39;101044.06;;;3.98;59.06
78485;BME280;67773;50.806;8.776;2023-04-03T08:28:05;101045.75;;;4.21;56.52
78485;BME280;67773;50.806;8.776;2023-04-03T08:30:30;101040.53;;;4.10;57.40
78485;BME280;67773;50.806;8.776;2023-04-03T08:32:56;101046.63;;;4.15;57.11
78485;BME280;67773;50.806;8.776;2023-04-03T08:35:21;101054.59;;;3.80;56.79
78485;BME280;67773;50.806;8.776;2023-04-03T08:37:46;101056.28;;;4.13;56.60
78485;BME280;67773;50.806;8.776;2023-04-03T08:40:15;101041.38;;;4.12;56.72
78485;BME280;67773;50.806;8.776;2023-04-03T08:42:53;101048.34;;;4.31;56.23
78485;BME280;67773;50.806;8.776;2023-04-03T08:45:51;101036.84;;;4.55;55.01
78485;BME280;67773;50.806;8.776;2023-04-03T08:48:21;101048.00;;;5.02;54.44
78485;BME280;67773;50.806;8.776;2023-04-03T08:50:53;101037.91;;;5.60;53.02
78485;BME280;67773;50.806;8.776;2023-04-03T08:53:32;101037.03;;;5.63;53.63
78485;BME280;67773;50.806;8.776;2023-04-03T08:56:04;101046.50;;;5.80;52.42
78485;BME280;67773;50.806;8.776;2023-04-03T08:58:49;101048.44;;;5.63;51.54
78485;BME280;67773;50.806;8.776;2023-04-03T09:01:35;101058.09;;;5.60;49.27
78485;BME280;67773;50.806;8.776;2023-04-03T09:04:02;101044.09;;;5.51;48.38
78485;BME280;67773;50.806;8.776;2023-04-03T09:06:32;101040.63;;;5.53;47.47
78485;BME280;67773;50.806;8.776;2023-04-03T09:11:44;101027.97;;;11.04;36.51
78485;BME280;67773;50.806;8.776;2023-04-03T09:17:03;101021.28;;;16.41;26.82
78485;BME280;67773;50.806;8.776;2023-04-03T09:19:43;101030.97;;;17.56;24.07
78485;BME280;67773;50.806;8.776;2023-04-03T09:22:13;101039.78;;;15.96;25.34
78485;BME280;67773;50.806;8.776;2023-04-03T09:24:42;101047.13;;;13.38;30.32
78485;BME280;67773;50.806;8.776;2023-04-03T09:27:10;101042.22;;;15.28;26.49
78485;BME280;67773;50.806;8.776;2023-04-03T09:29:42;101041.28;;;13.93;29.25
78485;BME280;67773;50.806;8.776;2023-04-03T09:32:31;101056.97;;;10.84;32.71
78485;BME280;67773;50.806;8.776;2023-04-03T09:35:20;101032.00;;;13.81;30.39
78485;BME280;67773;50.806;8.776;2023-04-03T09:37:49;101014.53;;;17.46;23.74
78485;BME280;67773;50.806;8.776;2023-04-03T09:40:30;101013.56;;;19.63;21.90
78485;BME280;67773;50.806;8.776;2023-04-03T09:42:58;101006.75;;;20.09;20.68
78485;BME280;67773;50.806;8.776;2023-04-03T09:45:27;100997.06;;;20.58;19.33
78485;BME280;67773;50.806;8.776;2023-04-03T09:50:37;101009.38;;;20.74;20.43
78485;BME280;67773;50.806;8.776;2023-04-03T09:53:06;101004.13;;;20.97;19.92
78485;BME280;67773;50.806;8.776;2023-04-03T09:55:33;101000.16;;;21.14;20.47
78485;BME280;67773;50.806;8.776;2023-04-03T09:58:24;100998.34;;;20.52;18.79
78485;BME280;67773;50.806;8.776;2023-04-03T10:00:58;100995.25;;;21.55;18.47
78485;BME280;67773;50.806;8.776;2023-04-03T10:03:27;100990.88;;;21.89;19.13
78485;BME280;67773;50.806;8.776;2023-04-03T10:05:53;100977.56;;;23.96;16.29
78485;BME280;67773;50.806;8.776;2023-04-03T10:08:28;100976.13;;;23.92;16.41
78485;BME280;67773;50.806;8.776;2023-04-03T10:11:26;100983.81;;;24.08;15.34
78485;BME280;67773;50.806;8.776;2023-04-03T10:13:59;100978.91;;;23.49;16.26
78485;BME280;67773;50.806;8.776;2023-04-03T10:16:48;100980.41;;;23.74;15.41
78485;BME280;67773;50.806;8.776;2023-04-03T10:19:39;100967.56;;;24.38;14.57
78485;BME280;67773;50.806;8.776;2023-04-03T10:22:28;100972.44;;;21.95;16.58
78485;BME280;67773;50.806;8.776;2023-04-03T10:47:09;100940.72;;;23.73;14.90
78485;BME280;67773;50.806;8.776;2023-04-03T10:49:56;100954.47;;;23.60;14.55
78485;BME280;67773;50.806;8.776;2023-04-03T10:57:56;100934.44;;;23.08;14.86
78485;BME280;67773;50.806;8.776;2023-04-03T11:00:40;100938.84;;;24.36;14.72
78485;BME280;67773;50.806;8.776;2023-04-03T11:03:12;100944.34;;;22.64;15.21
78485;BME280;67773;50.806;8.776;2023-04-03T11:05:43;100936.78;;;20.46;16.38
78485;BME280;67773;50.806;8.776;2023-04-03T11:10:53;100931.16;;;20.49;17.49
78485;BME280;67773;50.806;8.776;2023-04-03T11:15:53;100940.34;;;18.89;18.95
78485;BME280;67773;50.806;8.776;2023-04-03T11:18:30;100932.81;;;18.25;19.82
78485;BME280;67773;50.806;8.776;2023-04-03T11:21:05;100943.47;;;18.96;20.21
78485;BME280;67773;50.806;8.776;2023-04-03T11:23:35;100938.59;;;19.15;18.62
78485;BME280;67773;50.806;8.776;2023-04-03T11:26:16;100929.13;;;18.54;19.96
78485;BME280;67773;50.806;8.776;2023-04-03T11:28:43;100928.91;;;18.86;19.98
78485;BME280;67773;50.806;8.776;2023-04-03T11:34:33;100927.50;;;18.23;19.21
78485;BME280;67773;50.806;8.776;2023-04-03T11:37:00;100914.66;;;19.38;20.36
78485;BME280;67773;50.806;8.776;2023-04-03T11:39:28;100910.88;;;20.18;17.57
78485;BME280;67773;50.806;8.776;2023-04-03T11:41:54;100901.25;;;20.65;18.34
78485;BME280;67773;50.806;8.776;2023-04-03T11:44:31;100896.50;;;22.65;16.76
78485;BME280;67773;50.806;8.776;2023-04-03T11:46:59;100898.72;;;22.60;17.28
78485;BME280;67773;50.806;8.776;2023-04-03T12:13:37;100880.28;;;18.33;21.69
78485;BME280;67773;50.806;8.776;2023-04-03T12:16:05;100881.50;;;18.42;21.71
78485;BME280;67773;50.806;8.776;2023-04-03T12:18:40;100874.75;;;18.08;21.98
78485;BME280;67773;50.806;8.776;2023-04-03T12:21:07;100884.31;;;14.95;23.30
78485;BME280;67773;50.806;8.776;2023-04-03T12:23:34;100886.66;;;13.49;26.12
78485;BME280;67773;50.806;8.776;2023-04-03T12:26:05;100886.09;;;11.61;28.89
78485;BME280;67773;50.806;8.776;2023-04-03T12:28:37;100912.03;;;12.50;26.61
78485;BME280;67773;50.806;8.776;2023-04-03T12:31:04;100894.41;;;11.75;28.24
78485;BME280;67773;50.806;8.776;2023-04-03T12:33:47;100885.38;;;16.28;24.15
78485;BME280;67773;50.806;8.776;2023-04-03T12:36:33;100872.31;;;20.41;18.49
78485;BME280;67773;50.806;8.776;2023-04-03T12:39:12;100860.72;;;21.83;16.97
78485;BME280;67773;50.806;8.776;2023-04-03T12:42:04;100842.38;;;23.08;14.71
78485;BME280;67773;50.806;8.776;2023-04-03T12:44:38;100844.44;;;22.84;16.01
78485;BME280;67773;50.806;8.776;2023-04-03T12:47:32;100836.56;;;23.54;17.11
78485;BME280;67773;50.806;8.776;2023-04-03T12:50:03;100839.66;;;24.22;15.84
78485;BME280;67773;50.806;8.776;2023-04-03T12:52:37;100841.66;;;23.48;15.10
78485;BME280;67773;50.806;8.776;2023-04-03T12:55:08;100845.44;;;23.56;14.52
78485;BME280;67773;50.806;8.776;2023-04-03T12:57:42;100836.88;;;22.44;16.86
78485;BME280;67773;50.806;8.776;2023-04-03T13:02:56;100829.78;;;22.86;16.58
78485;BME280;67773;50.806;8.776;2023-04-03T13:05:22;100828.31;;;22.71;16.26
78485;BME280;67773;50.806;8.776;2023-04-03T13:07:50;100830.91;;;24.09;14.69
78485;BME280;67773;50.806;8.776;2023-04-03T13:10:18;100829.72;;;23.71;15.92
78485;BME280;67773;50.806;8.776;2023-04-03T13:12:53;100820.88;;;22.95;17.24
78485;BME280;67773;50.806;8.776;2023-04-03T13:15:23;100817.41;;;23.46;14.74
78485;BME280;67773;50.806;8.776;2023-04-03T13:17:50;100819.06;;;22.41;17.72
78485;BME280;67773;50.806;8.776;2023-04-03T13:25:21;100818.41;;;21.37;17.07
78485;BME280;67773;50.806;8.776;2023-04-03T13:27:48;100832.75;;;19.80;19.39
78485;BME280;67773;50.806;8.776;2023-04-03T13:30:23;100824.66;;;21.14;17.59
78485;BME280;67773;50.806;8.776;2023-04-03T13:32:49;100813.22;;;21.34;18.01
78485;BME280;67773;50.806;8.776;2023-04-03T13:35:44;100817.44;;;21.25;18.03
78485;BME280;67773;50.806;8.776;2023-04-03T13:40:55;100809.34;;;21.72;17.45
78485;BME280;67773;50.806;8.776;2023-04-03T13:43:24;100814.06;;;20.52;18.17
78485;BME280;67773;50.806;8.776;2023-04-03T13:46:02;100818.56;;;20.64;19.32
78485;BME280;67773;50.806;8.776;2023-04-03T13:48:51;100823.22;;;18.42;21.06
78485;BME280;67773;50.806;8.776;2023-04-03T13:51:21;100829.97;;;15.64;23.76
78485;BME280;67773;50.806;8.776;2023-04-03T13:53:54;100836.34;;;13.99;27.69
78485;BME280;67773;50.806;8.776;2023-04-03T13:56:29;100835.69;;;12.50;28.03
78485;BME280;67773;50.806;8.776;2023-04-03T13:58:57;100825.59;;;11.91;30.79
78485;BME280;67773;50.806;8.776;2023-04-03T14:01:23;100839.03;;;11.63;31.43
78485;BME280;67773;50.806;8.776;2023-04-03T14:03:59;100829.31;;;11.12;31.42
78485;BME280;67773;50.806;8.776;2023-04-03T14:06:25;100816.81;;;10.89;30.13
78485;BME280;67773;50.806;8.776;2023-04-03T14:08:51;100823.72;;;10.68;30.62
78485;BME280;67773;50.806;8.776;2023-04-03T14:11:22;100819.31;;;10.41;32.65
78485;BME280;67773;50.806;8.776;2023-04-03T14:13:49;100819.63;;;10.32;32.77
78485;BME280;67773;50.806;8.776;2023-04-03T14:16:18;100822.47;;;10.26;32.26
78485;BME280;67773;50.806;8.776;2023-04-03T14:18:45;100815.13;;;10.60;31.81
78485;BME280;67773;50.806;8.776;2023-04-03T14:21:13;100811.53;;;10.63;30.29
78485;BME280;67773;50.806;8.776;2023-04-03T14:23:39;100805.78;;;10.49;33.25
78485;BME280;67773;50.806;8.776;2023-04-03T14:26:13;100806.63;;;11.52;30.85
78485;BME280;67773;50.806;8.776;2023-04-03T14:28:41;100801.25;;;12.02;29.33
78485;BME280;67773;50.806;8.776;2023-04-03T14:31:07;100809.81;;;11.62;28.94